KMCO

Orlando International Airport

Orlando, Florida, USA
METAR KMCO 171353Z 33009KT 10SM FEW015 SCT080 SCT250 12/08 A3017 RMK AO2 SLP214 T01220083
Observed Flight Rules
Dec-17 @ 13:53 UTC (37 minutes ago) Visual Flight Rules
Wind Visibility Clouds
330° at 9 knots 10 miles
  • Few at 1,500' AGL
  • Scattered at 8,000' AGL
  • Scattered at 25,000' AGL
Temperatures Readings
Current 12°C / 54°F
Dewpoint 8°C / 46°F
Humidity 77%
Altimeter 30.17" Hg
Pressure 1021.4 hPa
Elevation 29
METAR KMCO 171353Z 33009KT 10SM FEW015 SCT080 SCT250 12/08 A3017 RMK AO2 SLP214 T01220083
Observed Flight Rules
Dec-17 @ 13:53 UTC
(37 minutes ago)
VFR
Wind Visibility
330° at 9 knots 10 miles
Clouds
  • Few at 1,500' AGL
  • Scattered at 8,000' AGL
  • Scattered at 25,000' AGL
Temperature Dewpoint
12°C / 54°F 8°C / 46°F
Humidity Altimeter Pressure
77% 30.17" Hg 1021.4 hPa